createdAt,value
2023-01-29T00:00:33.801Z,21.83
2023-01-29T00:03:00.315Z,18.73
2023-01-29T00:05:28.446Z,19.17
2023-01-29T00:07:56.938Z,16.40
2023-01-29T00:10:24.962Z,17.90
2023-01-29T00:12:51.441Z,24.87
2023-01-29T00:15:18.134Z,16.63
2023-01-29T00:17:44.566Z,17.60
2023-01-29T00:20:11.847Z,15.43
2023-01-29T00:22:38.246Z,15.80
2023-01-29T00:25:05.046Z,16.37
2023-01-29T00:27:31.568Z,15.93
2023-01-29T00:29:58.233Z,16.70
2023-01-29T00:32:24.806Z,14.50
2023-01-29T00:34:51.261Z,22.00
2023-01-29T00:37:18.036Z,22.30
2023-01-29T00:39:48.204Z,21.67
2023-01-29T00:42:14.973Z,15.60
2023-01-29T00:44:41.453Z,14.97
2023-01-29T00:47:07.937Z,16.90
2023-01-29T00:49:34.516Z,19.83
2023-01-29T00:52:01.194Z,18.90
2023-01-29T00:54:27.606Z,15.40
2023-01-29T00:56:56.401Z,14.33
2023-01-29T00:59:22.917Z,16.77
2023-01-29T01:01:49.493Z,15.70
2023-01-29T01:04:16.231Z,15.47
2023-01-29T01:06:42.766Z,13.53
2023-01-29T01:09:10.481Z,16.20
2023-01-29T01:11:36.823Z,13.63
2023-01-29T01:14:03.362Z,13.73
2023-01-29T01:16:29.829Z,12.70
2023-01-29T01:18:56.488Z,12.53
2023-01-29T01:21:23.018Z,11.23
2023-01-29T01:23:49.438Z,12.80
2023-01-29T01:26:15.860Z,11.77
2023-01-29T01:28:42.460Z,11.83
2023-01-29T01:31:11.341Z,8.73
2023-01-29T01:33:38.465Z,13.70
2023-01-29T01:36:06.381Z,12.57
2023-01-29T01:38:33.177Z,12.03
2023-01-29T01:40:59.586Z,16.67
2023-01-29T01:43:26.901Z,14.07
2023-01-29T01:45:53.618Z,15.10
2023-01-29T01:48:24.848Z,17.27
2023-01-29T01:51:00.549Z,18.20
2023-01-29T01:53:38.952Z,13.57
2023-01-29T01:56:09.444Z,19.77
2023-01-29T01:58:43.695Z,14.98
2023-01-29T02:01:11.330Z,15.63
2023-01-29T02:03:49.710Z,15.80
2023-01-29T02:06:16.205Z,14.30
2023-01-29T02:08:52.730Z,14.40
2023-01-29T02:11:20.343Z,12.67
2023-01-29T02:13:47.296Z,13.63
2023-01-29T02:16:14.050Z,10.30
2023-01-29T02:18:40.859Z,12.20
2023-01-29T02:21:40.489Z,12.57
2023-01-29T02:24:35.221Z,10.93
2023-01-29T02:27:14.922Z,10.77
2023-01-29T02:29:53.380Z,8.87
2023-01-29T02:32:28.424Z,10.43
2023-01-29T02:35:09.118Z,11.20
2023-01-29T02:37:50.034Z,10.75
2023-01-29T02:43:28.977Z,10.20
2023-01-29T02:46:20.401Z,10.50
2023-01-29T02:48:59.587Z,14.23
2023-01-29T02:51:34.398Z,14.23
2023-01-29T02:54:11.443Z,19.70
2023-01-29T02:56:51.912Z,16.87
2023-01-29T02:59:25.929Z,8.25
2023-01-29T03:02:05.414Z,13.27
2023-01-29T03:04:36.673Z,13.20
2023-01-29T03:07:10.353Z,12.23
2023-01-29T03:09:42.769Z,13.73
2023-01-29T03:12:26.687Z,15.77
2023-01-29T03:14:53.303Z,12.40
2023-01-29T03:17:26.251Z,10.23
2023-01-29T03:19:53.213Z,12.70
2023-01-29T03:22:20.802Z,13.87
2023-01-29T03:24:51.952Z,12.67
2023-01-29T03:27:23.278Z,11.63
2023-01-29T03:29:52.978Z,10.90
2023-01-29T03:32:21.255Z,13.47
2023-01-29T03:34:58.711Z,12.07
2023-01-29T03:37:46.515Z,13.73
2023-01-29T03:40:15.325Z,15.73
2023-01-29T03:43:14.130Z,14.43
2023-01-29T03:46:02.174Z,11.77
2023-01-29T03:48:37.117Z,12.87
2023-01-29T03:51:06.652Z,12.87
2023-01-29T03:53:47.646Z,14.50
2023-01-29T03:59:07.009Z,16.03
2023-01-29T04:01:45.199Z,11.80
2023-01-29T04:04:17.122Z,12.90
2023-01-29T04:06:47.607Z,12.57
2023-01-29T04:09:20.452Z,12.68
2023-01-29T04:11:54.376Z,12.13
2023-01-29T04:14:22.070Z,10.70
2023-01-29T04:16:53.370Z,13.23
2023-01-29T04:19:21.065Z,13.20
2023-01-29T04:21:50.679Z,12.07
2023-01-29T04:24:17.634Z,12.60
2023-01-29T04:26:51.325Z,10.63
2023-01-29T04:29:30.435Z,11.77
2023-01-29T04:32:18.540Z,12.03
2023-01-29T04:34:51.080Z,10.90
2023-01-29T04:37:36.058Z,12.33
2023-01-29T04:40:15.122Z,9.90
2023-01-29T04:42:51.177Z,12.67
2023-01-29T04:45:39.494Z,12.07
2023-01-29T04:48:11.737Z,12.83
2023-01-29T04:50:44.306Z,10.80
2023-01-29T04:53:23.461Z,11.90
2023-01-29T04:55:56.837Z,10.97
2023-01-29T04:58:34.872Z,11.07
2023-01-29T05:01:05.980Z,10.73
2023-01-29T05:03:34.059Z,11.37
2023-01-29T05:06:02.104Z,12.67
2023-01-29T05:08:31.246Z,11.93
2023-01-29T05:11:00.139Z,11.03
2023-01-29T05:13:30.097Z,20.37
2023-01-29T05:16:25.664Z,13.03
2023-01-29T05:18:52.356Z,9.77
2023-01-29T05:21:19.520Z,13.00
2023-01-29T05:23:46.015Z,10.97
2023-01-29T05:26:12.399Z,13.10
2023-01-29T05:28:39.264Z,10.97
2023-01-29T05:31:06.113Z,12.50
2023-01-29T05:33:32.647Z,11.10
2023-01-29T05:36:00.338Z,10.50
2023-01-29T05:38:26.873Z,12.57
2023-01-29T05:40:53.615Z,12.33
2023-01-29T05:43:23.018Z,11.40
2023-01-29T05:46:00.444Z,13.07
2023-01-29T05:48:28.957Z,12.00
2023-01-29T05:51:00.870Z,12.40
2023-01-29T05:53:29.478Z,11.47
2023-01-29T05:55:56.081Z,11.17
2023-01-29T05:58:23.139Z,10.67
2023-01-29T06:00:49.717Z,10.87
2023-01-29T06:03:16.074Z,10.53
2023-01-29T06:05:42.523Z,8.90
2023-01-29T06:08:09.100Z,9.43
2023-01-29T06:10:35.561Z,12.10
2023-01-29T06:13:02.593Z,13.50
2023-01-29T06:15:29.129Z,12.07
2023-01-29T06:17:57.296Z,10.33
2023-01-29T06:20:24.921Z,12.73
2023-01-29T06:22:51.651Z,11.63
2023-01-29T06:25:19.655Z,11.43
2023-01-29T06:27:46.260Z,12.20
2023-01-29T06:30:13.302Z,10.27
2023-01-29T06:32:39.940Z,11.07
2023-01-29T06:35:06.946Z,9.53
2023-01-29T06:37:33.470Z,12.47
2023-01-29T06:39:59.864Z,11.00
2023-01-29T06:42:26.624Z,13.47
2023-01-29T06:44:54.515Z,12.30
2023-01-29T06:47:21.186Z,10.00
2023-01-29T06:49:47.599Z,12.93
2023-01-29T06:52:14.248Z,14.33
2023-01-29T06:54:40.834Z,13.47
2023-01-29T06:57:07.545Z,29.83
2023-01-29T06:59:34.064Z,11.70
2023-01-29T07:02:00.517Z,13.50
2023-01-29T07:04:26.993Z,10.83
2023-01-29T07:06:53.714Z,11.20
2023-01-29T07:09:20.218Z,14.73
2023-01-29T07:11:46.708Z,15.27
2023-01-29T07:14:13.140Z,12.37
2023-01-29T07:16:39.584Z,11.40
2023-01-29T07:19:06.106Z,12.97
2023-01-29T07:21:32.746Z,14.47
2023-01-29T07:23:59.458Z,11.50
2023-01-29T07:26:26.177Z,11.30
2023-01-29T07:28:52.780Z,11.90
2023-01-29T07:31:19.311Z,18.83
2023-01-29T07:33:46.675Z,16.40
2023-01-29T07:36:14.207Z,11.57
2023-01-29T07:38:42.194Z,14.20
2023-01-29T07:41:09.824Z,14.03
2023-01-29T07:43:36.637Z,13.70
2023-01-29T07:46:04.199Z,15.53
2023-01-29T07:48:30.702Z,11.97
2023-01-29T07:50:57.693Z,15.90
2023-01-29T07:53:24.492Z,15.60
2023-01-29T07:55:51.131Z,17.50
2023-01-29T07:58:18.432Z,12.97
2023-01-29T08:00:45.566Z,13.73
2023-01-29T08:03:19.517Z,15.63
2023-01-29T08:05:46.559Z,17.23
2023-01-29T08:08:13.601Z,17.23
2023-01-29T08:10:40.994Z,16.17
2023-01-29T08:13:08.194Z,17.00
2023-01-29T08:15:37.772Z,15.03
2023-01-29T08:18:05.237Z,15.23
2023-01-29T08:20:31.783Z,14.53
2023-01-29T08:23:02.688Z,15.90
2023-01-29T08:27:59.956Z,19.27
2023-01-29T08:30:29.171Z,13.20
2023-01-29T08:32:56.116Z,14.23
2023-01-29T08:35:23.962Z,12.93
2023-01-29T08:37:54.892Z,15.60
2023-01-29T08:42:48.005Z,15.70
2023-01-29T08:45:14.595Z,12.33
2023-01-29T08:47:49.962Z,19.47
2023-01-29T08:50:18.227Z,16.07
2023-01-29T08:52:45.849Z,19.37
2023-01-29T08:55:14.158Z,15.27
2023-01-29T08:57:40.805Z,13.90
2023-01-29T09:00:08.576Z,14.83
2023-01-29T09:02:35.566Z,16.57
2023-01-29T09:05:01.991Z,20.07
2023-01-29T09:07:29.904Z,17.03
2023-01-29T09:09:58.050Z,14.47
2023-01-29T09:12:24.635Z,15.20
2023-01-29T09:14:51.127Z,13.53
2023-01-29T09:17:17.634Z,15.20
2023-01-29T09:19:44.148Z,11.40
2023-01-29T09:22:11.865Z,15.60
2023-01-29T09:24:39.141Z,13.57
2023-01-29T09:27:05.918Z,13.47
2023-01-29T09:29:35.438Z,12.57
2023-01-29T09:32:03.910Z,12.13
2023-01-29T09:34:30.448Z,13.13
2023-01-29T09:36:57.341Z,12.30
2023-01-29T09:39:24.148Z,12.13
2023-01-29T09:42:23.275Z,11.73
2023-01-29T09:45:10.285Z,14.43
2023-01-29T09:47:37.071Z,15.80
2023-01-29T09:50:36.927Z,13.63
2023-01-29T09:53:27.728Z,13.67
2023-01-29T09:56:05.675Z,14.02
2023-01-29T09:58:38.744Z,12.00
2023-01-29T10:01:33.957Z,14.53
2023-01-29T10:04:03.735Z,9.03
2023-01-29T10:06:30.182Z,12.27
2023-01-29T10:09:28.707Z,14.47
2023-01-29T10:12:35.492Z,13.27
2023-01-29T10:15:39.398Z,12.57
2023-01-29T10:18:17.902Z,15.00
2023-01-29T10:20:56.965Z,13.53
2023-01-29T10:23:34.368Z,13.87
2023-01-29T10:26:01.122Z,12.77
2023-01-29T10:28:44.250Z,11.30
2023-01-29T10:31:15.271Z,12.97
2023-01-29T10:34:01.106Z,14.17
2023-01-29T10:36:43.805Z,11.13
2023-01-29T10:39:20.312Z,15.17
2023-01-29T10:42:19.992Z,15.17
2023-01-29T10:45:08.916Z,15.73
2023-01-29T10:48:06.471Z,15.77
2023-01-29T10:50:36.096Z,15.17
2023-01-29T10:53:21.149Z,19.17
2023-01-29T10:56:23.142Z,16.10
2023-01-29T10:59:35.165Z,14.57
2023-01-29T11:02:01.811Z,14.00
2023-01-29T11:04:31.804Z,12.33
2023-01-29T11:06:59.544Z,16.87
2023-01-29T11:10:08.191Z,20.57
2023-01-29T11:12:35.964Z,13.40
2023-01-29T11:15:19.921Z,16.23
2023-01-29T11:18:15.935Z,18.93
2023-01-29T11:20:45.737Z,15.53
2023-01-29T11:23:30.997Z,13.97
2023-01-29T11:25:59.315Z,15.20
2023-01-29T11:28:46.610Z,14.20
2023-01-29T11:31:29.294Z,15.03
2023-01-29T11:34:21.029Z,12.50
2023-01-29T11:37:00.793Z,12.13
2023-01-29T11:39:30.082Z,19.07
2023-01-29T11:41:58.159Z,19.20
2023-01-29T11:44:34.328Z,15.60
2023-01-29T11:47:18.463Z,18.03
2023-01-29T11:49:52.349Z,15.13
2023-01-29T11:52:21.955Z,15.90
2023-01-29T11:54:55.348Z,15.00
2023-01-29T11:57:36.935Z,16.10
2023-01-29T12:00:24.848Z,18.13
2023-01-29T12:03:16.904Z,17.07
2023-01-29T12:05:56.378Z,15.13
2023-01-29T12:08:24.093Z,16.07
2023-01-29T12:10:50.996Z,14.47
2023-01-29T12:13:28.119Z,16.00
2023-01-29T12:16:33.129Z,15.65
2023-01-29T12:19:28.232Z,16.17
2023-01-29T12:22:04.643Z,15.60
2023-01-29T12:24:59.671Z,16.00
2023-01-29T12:27:35.493Z,15.17
2023-01-29T12:30:29.080Z,17.90
2023-01-29T12:32:58.501Z,14.67
2023-01-29T12:35:29.638Z,11.18
2023-01-29T12:38:18.177Z,12.27
2023-01-29T12:40:51.402Z,12.00
2023-01-29T12:43:25.173Z,71.35
2023-01-29T12:45:57.976Z,14.98
2023-01-29T12:48:31.939Z,12.15
2023-01-29T12:51:19.571Z,9.95
2023-01-29T12:54:00.979Z,11.75
2023-01-29T12:56:43.383Z,11.18
2023-01-29T12:59:29.854Z,11.68
2023-01-29T13:02:10.260Z,10.93
2023-01-29T13:04:40.441Z,10.45
2023-01-29T13:07:32.097Z,18.30
2023-01-29T13:10:10.443Z,14.23
2023-01-29T13:12:39.661Z,8.80
2023-01-29T13:15:26.796Z,6.68
2023-01-29T13:18:16.678Z,13.18
2023-01-29T13:20:44.674Z,30.63
2023-01-29T13:23:22.924Z,10.68
2023-01-29T13:25:54.750Z,16.27
2023-01-29T13:28:26.644Z,8.23
2023-01-29T13:31:11.766Z,9.75
2023-01-29T13:33:40.876Z,23.15
2023-01-29T13:36:15.542Z,12.57
2023-01-29T13:38:43.483Z,14.07
2023-01-29T13:41:10.006Z,10.93
2023-01-29T13:43:43.420Z,9.55
2023-01-29T13:46:20.768Z,10.47
2023-01-29T13:48:50.296Z,7.88
2023-01-29T13:51:22.032Z,7.65
2023-01-29T13:54:03.928Z,8.77
2023-01-29T13:56:33.378Z,11.10
2023-01-29T13:59:02.235Z,12.40
2023-01-29T14:01:47.400Z,9.25
2023-01-29T14:04:28.155Z,10.18
2023-01-29T14:06:58.060Z,10.00
2023-01-29T14:09:37.337Z,9.18
2023-01-29T14:12:23.216Z,12.00
2023-01-29T14:15:21.154Z,10.60
2023-01-29T14:17:55.201Z,12.70
2023-01-29T14:20:38.668Z,9.40
2023-01-29T14:23:24.503Z,10.27
2023-01-29T14:25:51.315Z,10.73
2023-01-29T14:28:23.030Z,11.27
2023-01-29T14:30:50.468Z,9.80
2023-01-29T14:33:41.002Z,18.10
2023-01-29T14:36:15.610Z,11.07
2023-01-29T14:38:51.879Z,9.77
2023-01-29T14:41:29.324Z,12.87
2023-01-29T14:44:33.253Z,14.27
2023-01-29T14:46:59.686Z,8.90
2023-01-29T14:49:58.101Z,7.82
2023-01-29T14:52:40.690Z,10.50
2023-01-29T14:55:15.797Z,12.43
2023-01-29T14:57:43.023Z,10.10
2023-01-29T15:00:26.685Z,10.70
2023-01-29T15:03:01.631Z,8.23
2023-01-29T15:05:32.938Z,9.43
2023-01-29T15:10:50.982Z,10.20
2023-01-29T15:13:35.692Z,11.25
2023-01-29T15:16:14.762Z,11.03
2023-01-29T15:18:45.851Z,8.43
2023-01-29T15:21:14.807Z,11.95
2023-01-29T15:23:43.804Z,11.10
2023-01-29T15:26:13.366Z,8.77
2023-01-29T15:28:39.818Z,10.47
2023-01-29T15:31:15.611Z,7.37
2023-01-29T15:33:46.007Z,10.07
2023-01-29T15:36:25.495Z,8.20
2023-01-29T15:39:27.199Z,11.87
2023-01-29T15:42:14.219Z,11.77
2023-01-29T15:44:45.693Z,9.67
2023-01-29T15:47:14.172Z,8.33
2023-01-29T15:49:43.043Z,7.83
2023-01-29T15:52:18.096Z,9.10
2023-01-29T15:54:45.254Z,10.30
2023-01-29T15:57:29.494Z,12.13
2023-01-29T15:59:58.703Z,9.17
2023-01-29T16:02:43.815Z,8.70
2023-01-29T16:05:24.018Z,10.30
2023-01-29T16:07:52.308Z,12.82
2023-01-29T16:10:28.249Z,10.90
2023-01-29T16:12:55.056Z,9.10
2023-01-29T16:15:31.060Z,12.20
2023-01-29T16:17:58.375Z,11.90
2023-01-29T16:20:39.079Z,8.27
2023-01-29T16:23:07.497Z,14.00
2023-01-29T16:25:36.641Z,9.23
2023-01-29T16:28:05.384Z,11.67
2023-01-29T16:30:32.180Z,12.57
2023-01-29T16:33:11.403Z,11.17
2023-01-29T16:35:38.019Z,10.00
2023-01-29T16:38:26.167Z,18.27
2023-01-29T16:41:16.352Z,12.13
2023-01-29T16:43:56.950Z,12.63
2023-01-29T16:46:35.545Z,16.30
2023-01-29T16:49:09.895Z,10.23
2023-01-29T16:51:38.745Z,13.67
2023-01-29T16:54:12.410Z,11.77
2023-01-29T16:56:42.333Z,13.13
2023-01-29T16:59:36.834Z,17.60
2023-01-29T17:02:05.228Z,18.37
2023-01-29T17:04:33.310Z,17.67
2023-01-29T17:07:02.461Z,14.80
2023-01-29T17:09:34.898Z,16.63
2023-01-29T17:12:05.990Z,23.00
2023-01-29T17:14:34.036Z,38.17
2023-01-29T17:17:15.433Z,33.20
2023-01-29T17:19:41.871Z,35.27
2023-01-29T17:22:08.343Z,32.73
2023-01-29T17:24:34.960Z,27.90
2023-01-29T17:27:02.201Z,25.50
2023-01-29T17:29:31.595Z,22.47
2023-01-29T17:31:58.295Z,24.73
2023-01-29T17:34:26.973Z,23.83
2023-01-29T17:37:01.130Z,24.77
2023-01-29T17:39:27.685Z,28.10
2023-01-29T17:41:57.001Z,20.07
2023-01-29T17:44:25.208Z,20.33
2023-01-29T17:46:53.121Z,25.57
2023-01-29T17:49:29.664Z,22.57
2023-01-29T17:51:57.086Z,21.93
2023-01-29T17:54:24.288Z,25.27
2023-01-29T17:56:52.895Z,20.93
2023-01-29T17:59:25.602Z,20.63
2023-01-29T18:01:52.263Z,30.87
2023-01-29T18:04:19.557Z,18.93
2023-01-29T18:06:49.088Z,21.67
2023-01-29T18:09:17.818Z,23.23
2023-01-29T18:11:46.619Z,22.00
2023-01-29T18:14:14.691Z,20.87
2023-01-29T18:16:42.964Z,18.70
2023-01-29T18:19:22.569Z,20.70
2023-01-29T18:21:49.934Z,23.37
2023-01-29T18:24:16.408Z,26.67
2023-01-29T18:26:43.163Z,24.77
2023-01-29T18:29:09.850Z,25.43
2023-01-29T18:31:36.293Z,28.60
2023-01-29T18:34:03.256Z,31.90
2023-01-29T18:36:29.838Z,30.13
2023-01-29T18:38:58.328Z,25.90
2023-01-29T18:41:24.908Z,27.50
2023-01-29T18:43:51.468Z,33.87
2023-01-29T18:46:18.531Z,26.53
2023-01-29T18:48:45.043Z,30.70
2023-01-29T18:51:11.588Z,30.50
2023-01-29T18:53:38.016Z,28.13
2023-01-29T18:56:08.625Z,24.77
2023-01-29T18:58:36.790Z,27.35
2023-01-29T19:01:06.004Z,29.20
2023-01-29T19:03:32.952Z,26.07
2023-01-29T19:06:04.097Z,24.27
2023-01-29T19:08:30.874Z,25.93
2023-01-29T19:10:57.784Z,25.93
2023-01-29T19:13:24.529Z,28.60
2023-01-29T19:15:52.697Z,28.53
2023-01-29T19:18:19.211Z,31.07
2023-01-29T19:20:45.902Z,30.63
2023-01-29T19:23:12.663Z,28.10
2023-01-29T19:25:39.880Z,31.77
2023-01-29T19:28:07.072Z,32.87
2023-01-29T19:30:34.020Z,30.80
2023-01-29T19:33:01.037Z,32.03
2023-01-29T19:35:30.792Z,28.93
2023-01-29T19:37:57.297Z,27.00
2023-01-29T19:40:24.070Z,25.93
2023-01-29T19:42:54.707Z,24.60
2023-01-29T19:45:37.003Z,24.63
2023-01-29T19:48:08.717Z,29.10
2023-01-29T19:50:35.296Z,28.10
2023-01-29T19:53:01.676Z,28.53
2023-01-29T19:55:30.190Z,26.50
2023-01-29T19:57:57.625Z,25.63
2023-01-29T20:00:28.351Z,25.80
2023-01-29T20:02:56.369Z,27.02
2023-01-29T20:05:23.064Z,27.27
2023-01-29T20:07:49.681Z,28.30
2023-01-29T20:10:16.574Z,25.60
2023-01-29T20:12:46.028Z,21.57
2023-01-29T20:15:13.738Z,26.93
2023-01-29T20:17:40.305Z,25.40
2023-01-29T20:20:07.300Z,26.40
2023-01-29T20:22:33.812Z,28.67
2023-01-29T20:25:01.704Z,30.13
2023-01-29T20:27:28.256Z,29.67
2023-01-29T20:29:54.888Z,31.00
2023-01-29T20:32:21.372Z,31.50
2023-01-29T20:34:47.853Z,30.43
2023-01-29T20:37:14.341Z,27.27
2023-01-29T20:39:40.799Z,27.07
2023-01-29T20:42:08.453Z,26.27
2023-01-29T20:44:34.902Z,30.90
2023-01-29T20:47:01.950Z,28.73
2023-01-29T20:49:28.618Z,27.07
2023-01-29T20:51:55.109Z,31.60
2023-01-29T20:54:21.545Z,34.57
2023-01-29T20:56:48.238Z,50.73
2023-01-29T20:59:16.317Z,43.37
2023-01-29T21:01:43.680Z,35.63
2023-01-29T21:04:10.208Z,36.30
2023-01-29T21:06:36.712Z,31.30
2023-01-29T21:09:05.903Z,30.00
2023-01-29T21:11:32.601Z,43.10
2023-01-29T21:13:59.199Z,37.53
2023-01-29T21:16:26.378Z,38.73
2023-01-29T21:18:57.545Z,44.53
2023-01-29T21:21:24.628Z,37.97
2023-01-29T21:23:51.247Z,33.97
2023-01-29T21:26:17.936Z,34.70
2023-01-29T21:28:46.808Z,32.73
2023-01-29T21:31:15.085Z,33.90
2023-01-29T21:33:41.911Z,37.70
2023-01-29T21:36:09.454Z,40.13
2023-01-29T21:38:36.320Z,35.17
2023-01-29T21:41:05.070Z,36.30
2023-01-29T21:43:31.714Z,34.97
2023-01-29T21:46:00.888Z,38.73
2023-01-29T21:48:27.678Z,41.17
2023-01-29T21:50:54.191Z,38.60
2023-01-29T21:53:20.713Z,35.37
2023-01-29T21:55:47.439Z,38.37
2023-01-29T21:58:14.644Z,35.10
2023-01-29T22:00:41.645Z,39.77
2023-01-29T22:03:08.280Z,36.53
2023-01-29T22:05:34.872Z,34.47
2023-01-29T22:08:02.965Z,34.60
2023-01-29T22:10:29.632Z,36.97
2023-01-29T22:12:57.356Z,34.03
2023-01-29T22:15:24.797Z,38.07
2023-01-29T22:17:52.302Z,36.07
2023-01-29T22:20:19.868Z,36.47
2023-01-29T22:22:46.846Z,28.67
2023-01-29T22:25:13.429Z,32.20
2023-01-29T22:27:39.921Z,31.53
2023-01-29T22:30:07.262Z,30.53
2023-01-29T22:32:33.797Z,32.87
2023-01-29T22:35:00.540Z,33.43
2023-01-29T22:37:27.174Z,30.87
2023-01-29T22:39:53.772Z,37.17
2023-01-29T22:42:22.692Z,33.07
2023-01-29T22:44:50.207Z,31.70
2023-01-29T22:47:20.204Z,32.10
2023-01-29T22:49:48.345Z,33.85
2023-01-29T22:52:14.936Z,33.83
2023-01-29T22:54:43.366Z,33.97
2023-01-29T22:57:11.952Z,31.27
2023-01-29T22:59:41.307Z,35.70
2023-01-29T23:02:08.477Z,30.60
2023-01-29T23:04:35.225Z,37.53
2023-01-29T23:07:01.851Z,34.13
2023-01-29T23:09:28.633Z,39.00
2023-01-29T23:11:55.144Z,40.33
2023-01-29T23:14:22.643Z,38.17
2023-01-29T23:16:49.210Z,40.20
2023-01-29T23:19:15.870Z,49.27
2023-01-29T23:21:42.288Z,40.20
2023-01-29T23:24:09.478Z,45.13
2023-01-29T23:26:36.218Z,57.30
2023-01-29T23:29:02.692Z,75.73
2023-01-29T23:31:29.898Z,65.80
2023-01-29T23:33:56.427Z,67.63
2023-01-29T23:36:22.971Z,60.93
2023-01-29T23:38:49.419Z,56.47
2023-01-29T23:41:15.886Z,53.83
2023-01-29T23:43:44.516Z,48.00
2023-01-29T23:46:11.008Z,54.43
2023-01-29T23:48:37.767Z,51.93
2023-01-29T23:51:05.640Z,47.23
2023-01-29T23:53:32.179Z,51.67
2023-01-29T23:56:01.199Z,43.23
2023-01-29T23:58:28.738Z,43.40
